DEUIR EDDW-EDDW

Flight info

Callsign DEUIR
Flight time 0h 10m
Altitude 2000
Route PLATZRUNDEN
Aircraft C172/L-SDFGRY/S

Departure

Time 2026-05-04 19:07
Airport Bremen Airport (EDDW)

Arrival

Time 2026-05-04 19:18
Airport Bremen Airport (EDDW)
Time Latitude Longitude Altitude Speed Heading
2026-05-04 18:53 53.05016 8.78157 7 ft 0 kts 49°
2026-05-04 18:59 53.05022 8.78170 7 ft 2 kts 53°
2026-05-04 19:00 53.05023 8.78207 7 ft 4 kts 144°
2026-05-04 19:00 53.04989 8.78248 7 ft 7 kts 156°
2026-05-04 19:00 53.04925 8.78271 6 ft 9 kts 140°
2026-05-04 19:00 53.04882 8.78332 5 ft 7 kts 139°
2026-05-04 19:01 53.04845 8.78389 4 ft 5 kts 114°
2026-05-04 19:01 53.04845 8.78452 4 ft 6 kts 88°
2026-05-04 19:01 53.04847 8.78542 4 ft 9 kts 88°
2026-05-04 19:01 53.04843 8.78631 4 ft 5 kts 128°
2026-05-04 19:02 53.04797 8.78661 4 ft 7 kts 178°
2026-05-04 19:02 53.04777 8.78663 4 ft 0 kts 178°
2026-05-04 19:05 53.04769 8.78663 4 ft 5 kts 177°
2026-05-04 19:05 53.04699 8.78674 4 ft 10 kts 150°
2026-05-04 19:05 53.04687 8.78716 4 ft 0 kts 84°
2026-05-04 19:06 53.04689 8.78803 4 ft 30 kts 86°
2026-05-04 19:06 53.04699 8.79420 35 ft 68 kts 83°
2026-05-04 19:06 53.04675 8.80205 201 ft 71 kts 86°
2026-05-04 19:07 53.04659 8.81089 347 ft 77 kts 83°
2026-05-04 19:07 53.04667 8.81976 509 ft 78 kts 75°
2026-05-04 19:07 53.05004 8.82581 690 ft 72 kts 13°
2026-05-04 19:07 53.05518 8.82653 813 ft 77 kts
2026-05-04 19:08 53.06071 8.82581 936 ft 84 kts 337°
2026-05-04 19:08 53.06388 8.81766 1010 ft 96 kts 280°
2026-05-04 19:08 53.06461 8.80620 1034 ft 99 kts 276°
2026-05-04 19:08 53.06470 8.79485 1056 ft 101 kts 272°
2026-05-04 19:09 53.06474 8.78285 1077 ft 102 kts 271°
2026-05-04 19:09 53.06450 8.77131 1148 ft 96 kts 278°
2026-05-04 19:09 53.06849 8.76349 1123 ft 92 kts 349°
2026-05-04 19:09 53.07378 8.76761 1084 ft 96 kts 60°
2026-05-04 19:10 53.07274 8.77868 1007 ft 108 kts 128°
2026-05-04 19:10 53.06552 8.78058 924 ft 115 kts 211°
2026-05-04 19:10 53.06188 8.76953 843 ft 112 kts 261°
2026-05-04 19:10 53.05767 8.75877 776 ft 107 kts 216°
2026-05-04 19:11 53.05115 8.75490 670 ft 88 kts 188°
2026-05-04 19:11 53.04609 8.75543 573 ft 63 kts 117°
2026-05-04 19:11 53.04616 8.76274 310 ft 66 kts 77°
2026-05-04 19:11 53.04645 8.76993 127 ft 60 kts 84°
2026-05-04 19:12 53.04662 8.77673 24 ft 58 kts 85°
2026-05-04 19:12 53.04686 8.79041 88 ft 73 kts 81°
2026-05-04 19:12 53.04702 8.79879 257 ft 75 kts 80°
2026-05-04 19:13 53.04734 8.80809 365 ft 86 kts 80°
2026-05-04 19:13 53.04750 8.81827 502 ft 87 kts 91°
2026-05-04 19:13 53.04427 8.82649 622 ft 93 kts 146°
2026-05-04 19:13 53.03782 8.82867 723 ft 98 kts 184°
2026-05-04 19:14 53.03120 8.82745 853 ft 96 kts 188°
2026-05-04 19:14 53.02550 8.82274 970 ft 96 kts 234°
2026-05-04 19:14 53.02374 8.81191 980 ft 103 kts 275°
2026-05-04 19:14 53.02414 8.80007 997 ft 102 kts 277°
2026-05-04 19:15 53.02462 8.78803 952 ft 106 kts 279°
2026-05-04 19:15 53.02528 8.77568 927 ft 106 kts 278°
2026-05-04 19:15 53.02620 8.76382 973 ft 97 kts 284°
2026-05-04 19:15 53.02713 8.75407 948 ft 76 kts 282°
2026-05-04 19:16 53.02835 8.74551 890 ft 72 kts 311°
2026-05-04 19:16 53.03250 8.74240 745 ft 68 kts 10°
2026-05-04 19:16 53.03729 8.74344 587 ft 68 kts
2026-05-04 19:16 53.04180 8.74460 512 ft 62 kts 13°
2026-05-04 19:17 53.04548 8.74711 435 ft 56 kts 49°
2026-05-04 19:17 53.04607 8.75355 334 ft 58 kts 75°
2026-05-04 19:17 53.04626 8.76028 217 ft 59 kts 81°
2026-05-04 19:17 53.04641 8.76705 135 ft 58 kts 79°
2026-05-04 19:18 53.04656 8.77376 60 ft 58 kts 81°
2026-05-04 19:18 53.04671 8.78010 7 ft 46 kts 86°
2026-05-04 19:18 53.04681 8.78653 17 ft 71 kts 85°
2026-05-04 19:18 53.04691 8.79494 178 ft 74 kts 82°
2026-05-04 19:19 53.04710 8.80408 282 ft 85 kts 82°
2026-05-04 19:19 53.04724 8.81392 465 ft 87 kts 85°
2026-05-04 19:19 53.04470 8.82268 639 ft 91 kts 139°
2026-05-04 19:19 53.03858 8.82545 775 ft 96 kts 181°
2026-05-04 19:20 53.03169 8.82459 896 ft 99 kts 181°
2026-05-04 19:20 53.02531 8.82042 908 ft 105 kts 230°
2026-05-04 19:20 53.02282 8.80962 948 ft 100 kts 274°
2026-05-04 19:20 53.02288 8.79809 962 ft 101 kts 272°
2026-05-04 19:21 53.02290 8.78631 959 ft 104 kts 274°
2026-05-04 19:21 53.02320 8.77426 961 ft 104 kts 278°
2026-05-04 19:21 53.02412 8.76267 994 ft 101 kts 284°
2026-05-04 19:21 53.02514 8.75236 993 ft 80 kts 277°
2026-05-04 19:22 53.02570 8.74371 911 ft 72 kts 282°
2026-05-04 19:22 53.02339 8.73487 825 ft 102 kts 222°
2026-05-04 19:22 53.01700 8.73371 947 ft 94 kts 147°
2026-05-04 19:22 53.01378 8.74208 1004 ft 88 kts 84°
2026-05-04 19:23 53.01743 8.74954 957 ft 93 kts
2026-05-04 19:23 53.02263 8.74398 980 ft 100 kts 295°
2026-05-04 19:23 53.02558 8.73385 933 ft 88 kts 325°
2026-05-04 19:23 53.03068 8.73161 821 ft 69 kts
2026-05-04 19:24 53.03548 8.73202 678 ft 68 kts
2026-05-04 19:24 53.04012 8.73269 543 ft 67 kts
2026-05-04 19:24 53.04418 8.73474 476 ft 55 kts 34°
2026-05-04 19:24 53.04586 8.74057 381 ft 61 kts 90°
2026-05-04 19:25 53.04596 8.74763 331 ft 60 kts 79°
2026-05-04 19:25 53.04613 8.75473 284 ft 61 kts 82°
2026-05-04 19:25 53.04631 8.76158 217 ft 60 kts 86°
2026-05-04 19:25 53.04637 8.76856 139 ft 60 kts 87°
2026-05-04 19:26 53.04659 8.77556 46 ft 60 kts 88°
2026-05-04 19:26 53.04673 8.78200 4 ft 55 kts 86°
2026-05-04 19:26 53.04692 8.79006 88 ft 74 kts 80°
2026-05-04 19:26 53.04724 8.79865 254 ft 75 kts 78°
2026-05-04 19:27 53.04775 8.80707 394 ft 76 kts 82°
2026-05-04 19:27 53.04763 8.81591 535 ft 77 kts 101°
2026-05-04 19:27 53.04376 8.82242 657 ft 84 kts 151°
2026-05-04 19:27 53.03803 8.82351 790 ft 86 kts 191°
2026-05-04 19:28 53.03214 8.82204 911 ft 87 kts 181°
2026-05-04 19:28 53.02655 8.81819 997 ft 90 kts 230°
2026-05-04 19:28 53.02423 8.80850 1038 ft 93 kts 270°
2026-05-04 19:28 53.02462 8.79777 1036 ft 95 kts 278°
2026-05-04 19:29 53.02518 8.78686 1081 ft 92 kts 276°
2026-05-04 19:29 53.02532 8.77574 1023 ft 104 kts 276°
2026-05-04 19:29 53.02595 8.76289 908 ft 114 kts 278°
2026-05-04 19:29 53.02665 8.75006 905 ft 107 kts 277°
2026-05-04 19:30 53.02696 8.73878 904 ft 86 kts 277°
2026-05-04 19:30 53.02842 8.73112 900 ft 63 kts 333°
2026-05-04 19:30 53.03273 8.73128 777 ft 68 kts 15°
2026-05-04 19:30 53.03758 8.73294 691 ft 72 kts
2026-05-04 19:31 53.04252 8.73427 588 ft 73 kts 13°
2026-05-04 19:31 53.04586 8.73869 510 ft 63 kts 83°
2026-05-04 19:31 53.04588 8.74590 418 ft 61 kts 77°
2026-05-04 19:31 53.04602 8.75263 325 ft 58 kts 81°
2026-05-04 19:32 53.04623 8.75953 241 ft 59 kts 82°
2026-05-04 19:32 53.04640 8.76641 156 ft 60 kts 87°
2026-05-04 19:32 53.04653 8.77337 67 ft 60 kts 87°
2026-05-04 19:32 53.04671 8.78009 7 ft 50 kts 89°
2026-05-04 19:33 53.04681 8.78486 4 ft 28 kts 80°
2026-05-04 19:33 53.04726 8.78654 4 ft 11 kts 27°
2026-05-04 19:33 53.04782 8.78663 4 ft 4 kts 359°
2026-05-04 19:33 53.04825 8.78653 4 ft 7 kts 329°
2026-05-04 19:34 53.04848 8.78579 4 ft 8 kts 269°
2026-05-04 19:34 53.04846 8.78472 4 ft 10 kts 269°
2026-05-04 19:34 53.04846 8.78385 4 ft 5 kts 306°
2026-05-04 19:34 53.04879 8.78338 5 ft 7 kts 317°
2026-05-04 19:35 53.04923 8.78274 5 ft 9 kts 320°
2026-05-04 19:35 53.04987 8.78250 7 ft 7 kts 338°
2026-05-04 19:35 53.05031 8.78191 7 ft 6 kts 319°
2026-05-04 19:35 53.05048 8.78149 7 ft 5 kts 240°
2026-05-04 19:36 53.05029 8.78112 7 ft 1 kts 287°
2026-05-04 19:36 53.05042 8.78115 7 ft 0 kts 64°